createdAt,value
2023-05-10T00:01:16.552Z,26.27
2023-05-10T00:03:47.034Z,26.23
2023-05-10T00:06:19.634Z,26.15
2023-05-10T00:08:46.898Z,26.19
2023-05-10T00:11:14.543Z,26.20
2023-05-10T00:13:47.394Z,26.23
2023-05-10T00:16:15.055Z,26.15
2023-05-10T00:18:42.493Z,26.24
2023-05-10T00:21:10.485Z,26.19
2023-05-10T00:23:40.157Z,26.23
2023-05-10T00:26:10.943Z,26.26
2023-05-10T00:28:46.643Z,26.22
2023-05-10T00:31:16.922Z,26.18
2023-05-10T00:33:47.378Z,26.15
2023-05-10T00:36:20.414Z,26.14
2023-05-10T00:38:47.930Z,26.12
2023-05-10T00:41:22.213Z,26.10
2023-05-10T00:43:49.715Z,26.05
2023-05-10T00:46:20.391Z,26.12
2023-05-10T00:48:48.514Z,26.11
2023-05-10T00:51:16.048Z,26.08
2023-05-10T00:53:46.644Z,26.14
2023-05-10T00:56:23.880Z,26.10
2023-05-10T00:58:54.092Z,26.03
2023-05-10T01:01:23.417Z,26.05
2023-05-10T01:03:56.969Z,26.08
2023-05-10T01:06:27.258Z,26.09
2023-05-10T01:08:57.248Z,26.11
2023-05-10T01:11:24.589Z,26.10
2023-05-10T01:13:57.579Z,26.17
2023-05-10T01:16:28.810Z,26.20
2023-05-10T01:18:56.493Z,26.22
2023-05-10T01:21:41.443Z,26.18
2023-05-10T01:24:36.551Z,26.20
2023-05-10T01:27:37.894Z,26.22
2023-05-10T01:30:44.580Z,26.18
2023-05-10T01:33:47.868Z,26.20
2023-05-10T01:36:38.839Z,26.25
2023-05-10T01:39:15.462Z,26.21
2023-05-10T01:41:54.867Z,26.21
2023-05-10T01:44:49.178Z,26.34
2023-05-10T01:47:41.564Z,26.34
2023-05-10T01:50:17.151Z,26.35
2023-05-10T01:52:58.000Z,26.33
2023-05-10T01:55:42.827Z,26.38
2023-05-10T01:58:22.237Z,26.40
2023-05-10T02:00:51.983Z,26.44
2023-05-10T02:03:23.345Z,26.43
2023-05-10T02:05:55.731Z,26.42
2023-05-10T02:08:30.219Z,26.45
2023-05-10T02:10:59.656Z,26.44
2023-05-10T02:13:29.435Z,26.44
2023-05-10T02:15:58.586Z,26.44
2023-05-10T02:18:29.453Z,26.47
2023-05-10T02:21:01.297Z,26.48
2023-05-10T02:23:29.721Z,26.51
2023-05-10T02:26:01.238Z,26.42
2023-05-10T02:28:29.417Z,26.48
2023-05-10T02:31:00.188Z,26.50
2023-05-10T02:33:29.131Z,26.41
2023-05-10T02:35:57.711Z,26.28
2023-05-10T02:38:32.357Z,26.22
2023-05-10T02:41:00.579Z,26.29
2023-05-10T02:43:34.423Z,26.14
2023-05-10T02:46:02.880Z,26.20
2023-05-10T02:48:34.519Z,26.13
2023-05-10T02:51:06.786Z,26.03
2023-05-10T02:53:39.572Z,26.01
2023-05-10T02:56:14.732Z,26.05
2023-05-10T02:58:42.173Z,25.99
2023-05-10T03:01:12.958Z,25.97
2023-05-10T03:03:40.311Z,26.00
2023-05-10T03:06:15.265Z,25.88
2023-05-10T03:08:44.092Z,25.86
2023-05-10T03:11:28.752Z,25.90
2023-05-10T03:14:17.494Z,25.77
2023-05-10T03:17:00.736Z,25.86
2023-05-10T03:19:39.317Z,25.78
2023-05-10T03:22:18.864Z,25.83
2023-05-10T03:24:48.284Z,25.75
2023-05-10T03:27:16.803Z,25.77
2023-05-10T03:29:47.710Z,25.81
2023-05-10T03:32:18.730Z,25.75
2023-05-10T03:34:46.118Z,25.74
2023-05-10T03:37:13.552Z,25.65
2023-05-10T03:39:41.444Z,25.69
2023-05-10T03:42:12.907Z,25.76
2023-05-10T03:44:46.089Z,25.69
2023-05-10T03:47:18.741Z,25.67
2023-05-10T03:49:52.520Z,25.69
2023-05-10T03:52:20.216Z,25.74
2023-05-10T03:54:48.750Z,25.69
2023-05-10T03:57:18.823Z,25.68
2023-05-10T03:59:46.378Z,25.65
2023-05-10T04:02:19.822Z,25.68
2023-05-10T04:04:49.453Z,25.72
2023-05-10T04:07:19.396Z,25.69
2023-05-10T04:09:49.598Z,25.66
2023-05-10T04:12:22.916Z,25.67
2023-05-10T04:14:53.147Z,25.62
2023-05-10T04:17:23.673Z,25.64
2023-05-10T04:19:54.035Z,25.66
2023-05-10T04:22:25.253Z,25.61
2023-05-10T04:24:55.819Z,25.57
2023-05-10T04:27:23.149Z,25.60
2023-05-10T04:29:51.227Z,25.59
2023-05-10T04:32:21.521Z,25.57
2023-05-10T04:34:54.524Z,25.62
2023-05-10T04:37:24.684Z,25.59
2023-05-10T04:39:57.964Z,25.59
2023-05-10T04:42:28.199Z,25.56
2023-05-10T04:45:01.355Z,25.59
2023-05-10T04:47:28.851Z,25.56
2023-05-10T04:49:59.611Z,25.55
2023-05-10T04:52:27.104Z,25.57
2023-05-10T04:54:54.559Z,25.56
2023-05-10T04:57:22.992Z,25.55
2023-05-10T04:59:50.780Z,25.61
2023-05-10T05:02:18.776Z,25.60
2023-05-10T05:04:49.688Z,25.57
2023-05-10T05:07:17.699Z,25.58
2023-05-10T05:09:45.050Z,25.52
2023-05-10T05:12:15.406Z,25.57
2023-05-10T05:14:42.765Z,25.55
2023-05-10T05:17:12.961Z,25.56
2023-05-10T05:19:40.351Z,25.62
2023-05-10T05:22:10.704Z,25.65
2023-05-10T05:24:44.043Z,25.65
2023-05-10T05:27:14.206Z,25.58
2023-05-10T05:29:49.895Z,25.67
2023-05-10T05:32:17.455Z,25.58
2023-05-10T05:34:50.992Z,25.67
2023-05-10T05:37:22.255Z,25.70
2023-05-10T05:39:52.747Z,25.57
2023-05-10T05:42:26.277Z,25.67
2023-05-10T05:44:58.922Z,25.64
2023-05-10T05:47:30.127Z,25.55
2023-05-10T05:50:01.521Z,25.51
2023-05-10T05:52:37.306Z,25.52
2023-05-10T05:55:05.462Z,25.68
2023-05-10T05:57:33.405Z,25.82
2023-05-10T06:00:01.237Z,25.64
2023-05-10T06:02:28.959Z,25.49
2023-05-10T06:04:56.517Z,25.31
2023-05-10T06:07:28.604Z,25.30
2023-05-10T06:09:59.138Z,25.16
2023-05-10T06:12:29.579Z,25.26
2023-05-10T06:14:57.645Z,25.30
2023-05-10T06:17:31.580Z,25.19
2023-05-10T06:19:59.366Z,25.13
2023-05-10T06:22:30.747Z,25.16
2023-05-10T06:24:58.434Z,24.66
2023-05-10T06:27:29.289Z,24.73
2023-05-10T06:30:11.569Z,25.01
2023-05-10T06:32:47.216Z,24.84
2023-05-10T06:35:15.464Z,24.87
2023-05-10T06:37:46.745Z,24.84
2023-05-10T06:40:18.159Z,25.03
2023-05-10T06:42:47.424Z,25.11
2023-05-10T06:45:19.030Z,25.36
2023-05-10T06:47:47.200Z,25.24
2023-05-10T06:50:20.654Z,25.31
2023-05-10T06:52:52.364Z,25.41
2023-05-10T06:55:25.780Z,25.47
2023-05-10T06:57:59.635Z,25.42
2023-05-10T07:00:30.002Z,25.42
2023-05-10T07:02:58.183Z,25.50
2023-05-10T07:05:29.931Z,25.56
2023-05-10T07:07:58.649Z,25.58
2023-05-10T07:10:29.448Z,25.55
2023-05-10T07:13:00.014Z,25.60
2023-05-10T07:15:28.321Z,25.54
2023-05-10T07:18:01.595Z,25.65
2023-05-10T07:20:29.701Z,25.62
2023-05-10T07:22:59.970Z,25.72
2023-05-10T07:25:30.908Z,25.63
2023-05-10T07:27:58.656Z,25.73
2023-05-10T07:30:31.833Z,25.79
2023-05-10T07:33:02.360Z,25.81
2023-05-10T07:35:30.475Z,25.90
2023-05-10T07:38:00.695Z,25.72
2023-05-10T07:40:32.180Z,25.64
2023-05-10T07:43:02.698Z,25.61
2023-05-10T07:45:35.695Z,25.62
2023-05-10T07:48:06.884Z,25.64
2023-05-10T07:50:36.385Z,25.70
2023-05-10T07:53:10.203Z,25.55
2023-05-10T07:55:38.202Z,25.65
2023-05-10T07:58:11.918Z,25.71
2023-05-10T08:00:46.851Z,25.77
2023-05-10T08:03:21.296Z,25.78
2023-05-10T08:05:55.140Z,25.86
2023-05-10T08:08:28.849Z,25.84
2023-05-10T08:11:04.302Z,25.98
2023-05-10T08:13:34.486Z,26.06
2023-05-10T08:16:03.538Z,25.96
2023-05-10T08:18:34.279Z,25.86
2023-05-10T08:21:05.426Z,25.73
2023-05-10T08:23:34.127Z,25.59
2023-05-10T08:26:10.462Z,25.75
2023-05-10T08:28:38.681Z,25.81
2023-05-10T08:31:11.616Z,25.64
2023-05-10T08:33:44.869Z,25.69
2023-05-10T08:36:22.516Z,25.58
2023-05-10T08:38:54.470Z,25.57
2023-05-10T08:41:25.629Z,25.46
2023-05-10T08:43:55.457Z,25.48
2023-05-10T08:46:24.583Z,25.46
2023-05-10T08:48:54.897Z,25.58
2023-05-10T08:51:28.160Z,25.49
2023-05-10T08:53:56.571Z,25.38
2023-05-10T08:56:27.273Z,25.31
2023-05-10T08:59:02.907Z,25.47
2023-05-10T09:01:34.045Z,25.49
2023-05-10T09:04:05.596Z,25.63
2023-05-10T09:06:42.572Z,25.47
2023-05-10T09:13:54.149Z,25.75
2023-05-10T09:16:22.589Z,26.23
2023-05-10T09:18:55.719Z,26.26
2023-05-10T09:21:23.527Z,26.48
2023-05-10T09:23:53.567Z,26.66
2023-05-10T09:26:27.834Z,26.69
2023-05-10T09:29:03.500Z,26.71
2023-05-10T09:31:49.569Z,27.15
2023-05-10T09:34:22.217Z,26.46
2023-05-10T09:36:55.407Z,26.37
2023-05-10T09:39:43.459Z,26.26
2023-05-10T09:42:11.682Z,26.17
2023-05-10T09:44:44.986Z,26.03
2023-05-10T09:47:23.623Z,25.91
2023-05-10T09:49:58.917Z,25.88
2023-05-10T09:52:48.660Z,25.97
2023-05-10T09:55:24.668Z,26.12
2023-05-10T09:58:03.082Z,26.22
2023-05-10T10:00:37.150Z,26.16
2023-05-10T10:03:05.636Z,26.07
2023-05-10T10:05:37.351Z,26.16
2023-05-10T10:08:08.706Z,25.92
2023-05-10T10:10:42.641Z,25.90
2023-05-10T10:13:16.755Z,25.89
2023-05-10T10:15:52.357Z,26.00
2023-05-10T10:18:25.286Z,25.93
2023-05-10T10:20:57.515Z,25.97
2023-05-10T10:23:25.761Z,25.91
2023-05-10T10:25:58.219Z,25.83
2023-05-10T10:28:39.474Z,25.90
2023-05-10T10:31:39.936Z,25.91
2023-05-10T10:34:08.882Z,25.65
2023-05-10T10:36:47.721Z,25.64
2023-05-10T10:39:19.043Z,25.75
2023-05-10T10:41:54.085Z,25.67
2023-05-10T10:44:26.262Z,25.86
2023-05-10T10:47:19.993Z,25.69
2023-05-10T10:50:03.624Z,25.78
2023-05-10T10:52:44.711Z,25.74
2023-05-10T10:55:15.205Z,25.66
2023-05-10T10:58:01.919Z,25.54
2023-05-10T11:00:34.236Z,25.52
2023-05-10T11:03:15.743Z,25.41
2023-05-10T11:05:49.489Z,25.31
2023-05-10T11:08:29.955Z,25.30
2023-05-10T11:11:01.080Z,25.30
2023-05-10T11:13:56.792Z,25.31
2023-05-10T11:16:28.455Z,25.23
2023-05-10T11:19:17.615Z,25.20
2023-05-10T11:22:12.234Z,25.28
2023-05-10T11:24:41.073Z,25.27
2023-05-10T11:27:12.919Z,25.12
2023-05-10T11:29:41.413Z,25.08
2023-05-10T11:32:09.889Z,25.07
2023-05-10T11:34:40.507Z,25.17
2023-05-10T11:37:08.497Z,25.09
2023-05-10T11:39:40.257Z,25.03
2023-05-10T11:42:12.411Z,25.00
2023-05-10T11:44:43.087Z,25.05
2023-05-10T11:47:19.416Z,25.02
2023-05-10T11:49:53.086Z,24.96
2023-05-10T11:52:26.475Z,24.99
2023-05-10T11:55:03.842Z,25.11
2023-05-10T11:57:36.460Z,25.21
2023-05-10T12:00:10.392Z,25.16
2023-05-10T12:02:38.606Z,25.16
2023-05-10T12:05:07.838Z,25.14
2023-05-10T12:07:41.754Z,25.27
2023-05-10T12:10:16.756Z,25.12
2023-05-10T12:12:46.744Z,25.04
2023-05-10T12:15:29.161Z,25.12
2023-05-10T12:17:59.454Z,25.10
2023-05-10T12:20:31.516Z,25.24
2023-05-10T12:23:06.772Z,25.13
2023-05-10T12:25:38.869Z,25.12
2023-05-10T12:28:08.786Z,25.13
2023-05-10T12:30:48.424Z,25.06
2023-05-10T12:33:20.214Z,25.06
2023-05-10T12:35:55.594Z,25.09
2023-05-10T12:38:38.977Z,25.07
2023-05-10T12:41:11.366Z,25.16
2023-05-10T12:43:44.596Z,25.27
2023-05-10T12:46:14.325Z,25.42
2023-05-10T12:48:47.523Z,25.68
2023-05-10T12:51:23.274Z,25.90
2023-05-10T12:53:58.891Z,26.29
2023-05-10T12:56:29.287Z,26.25
2023-05-10T12:58:59.911Z,26.23
2023-05-10T13:01:31.084Z,25.95
2023-05-10T13:04:04.148Z,26.02
2023-05-10T13:06:32.624Z,25.94
2023-05-10T13:09:00.783Z,25.97
2023-05-10T13:11:28.537Z,26.18
2023-05-10T13:13:56.692Z,26.39
2023-05-10T13:16:29.258Z,26.41
2023-05-10T13:19:02.809Z,26.56
2023-05-10T13:21:33.728Z,26.41
2023-05-10T13:24:07.837Z,26.40
2023-05-10T13:26:43.419Z,26.67
2023-05-10T13:29:18.435Z,26.65
2023-05-10T13:31:49.732Z,26.56
2023-05-10T13:34:21.737Z,26.29
2023-05-10T13:36:53.161Z,26.39
2023-05-10T13:39:27.216Z,26.35
2023-05-10T13:42:01.608Z,26.29
2023-05-10T13:44:35.315Z,26.20
2023-05-10T13:47:07.978Z,26.09
2023-05-10T13:49:36.412Z,26.02
2023-05-10T13:52:14.080Z,25.99
2023-05-10T13:54:47.071Z,26.10
2023-05-10T13:57:15.193Z,25.99
2023-05-10T13:59:48.216Z,25.97
2023-05-10T14:02:18.740Z,25.99
2023-05-10T14:04:49.392Z,26.00
2023-05-10T14:07:19.992Z,26.02
2023-05-10T14:09:51.232Z,26.09
2023-05-10T14:12:24.199Z,26.07
2023-05-10T14:14:59.691Z,26.11
2023-05-10T14:17:33.001Z,26.27
2023-05-10T14:20:04.823Z,26.13
2023-05-10T14:22:41.997Z,26.04
2023-05-10T14:25:12.607Z,26.01
2023-05-10T14:27:40.476Z,26.04
2023-05-10T14:30:16.773Z,26.01
2023-05-10T14:32:47.554Z,26.00
2023-05-10T14:35:20.197Z,25.98
2023-05-10T14:37:50.791Z,25.97
2023-05-10T14:40:24.178Z,25.91
2023-05-10T14:42:54.080Z,25.91
2023-05-10T14:45:27.768Z,26.04
2023-05-10T14:47:58.660Z,26.05
2023-05-10T14:50:36.919Z,26.02
2023-05-10T14:53:08.120Z,26.09
2023-05-10T14:55:39.157Z,26.16
2023-05-10T14:58:11.683Z,25.88
2023-05-10T15:00:42.532Z,25.86
2023-05-10T15:03:18.759Z,25.78
2023-05-10T15:05:50.360Z,25.87
2023-05-10T15:08:21.376Z,25.80
2023-05-10T15:10:52.202Z,25.74
2023-05-10T15:13:22.644Z,25.73
2023-05-10T15:15:54.347Z,25.80
2023-05-10T15:18:25.023Z,25.81
2023-05-10T15:20:55.563Z,25.84
2023-05-10T15:23:27.286Z,25.77
2023-05-10T15:26:03.432Z,25.74
2023-05-10T15:28:37.103Z,25.73
2023-05-10T15:31:13.166Z,25.71
2023-05-10T15:33:48.325Z,25.82
2023-05-10T15:36:21.970Z,25.95
2023-05-10T15:38:52.483Z,25.94
2023-05-10T15:41:27.568Z,25.86
2023-05-10T15:44:01.565Z,25.92
2023-05-10T15:46:39.073Z,25.94
2023-05-10T15:49:09.783Z,25.74
2023-05-10T15:51:44.026Z,25.71
2023-05-10T15:54:14.806Z,25.75
2023-05-10T15:56:48.175Z,25.62
2023-05-10T15:59:20.378Z,25.26
2023-05-10T16:01:52.173Z,24.99
2023-05-10T16:04:23.822Z,24.81
2023-05-10T16:07:02.056Z,24.72
2023-05-10T16:09:34.299Z,24.48
2023-05-10T16:12:04.660Z,24.46
2023-05-10T16:14:35.482Z,24.41
2023-05-10T16:17:11.728Z,24.36
2023-05-10T16:19:41.936Z,24.27
2023-05-10T16:22:12.247Z,24.21
2023-05-10T16:24:42.563Z,24.11
2023-05-10T16:27:18.781Z,24.10
2023-05-10T16:29:48.986Z,24.06
2023-05-10T16:32:22.375Z,23.98
2023-05-10T16:34:55.801Z,23.93
2023-05-10T16:37:23.358Z,23.89
2023-05-10T16:39:51.028Z,23.84
2023-05-10T16:42:18.853Z,23.77
2023-05-10T16:44:46.422Z,23.73
2023-05-10T16:47:14.012Z,23.68
2023-05-10T16:49:41.740Z,23.71
2023-05-10T16:52:12.626Z,23.72
2023-05-10T16:54:49.012Z,23.81
2023-05-10T16:57:21.536Z,23.92
2023-05-10T16:59:57.011Z,23.99
2023-05-10T17:02:29.381Z,24.03
2023-05-10T17:05:02.204Z,24.07
2023-05-10T17:07:29.622Z,24.08
2023-05-10T17:09:59.127Z,24.13
2023-05-10T17:12:29.117Z,24.16
2023-05-10T17:15:01.805Z,24.18
2023-05-10T17:17:32.560Z,24.19
2023-05-10T17:20:08.187Z,24.21
2023-05-10T17:22:40.352Z,24.23
2023-05-10T17:25:13.455Z,24.21
2023-05-10T17:27:40.880Z,24.22
2023-05-10T17:30:11.661Z,24.21
2023-05-10T17:32:41.414Z,24.23
2023-05-10T17:35:17.628Z,24.24
2023-05-10T17:37:53.539Z,24.24
2023-05-10T17:40:23.511Z,24.22
2023-05-10T17:42:52.131Z,24.23
2023-05-10T17:45:22.095Z,24.25
2023-05-10T17:47:51.680Z,24.25
2023-05-10T17:50:22.179Z,24.25
2023-05-10T17:52:49.647Z,24.25
2023-05-10T17:55:18.194Z,24.27
2023-05-10T17:57:45.911Z,24.26
2023-05-10T18:00:17.168Z,24.25
2023-05-10T18:02:44.611Z,24.26
2023-05-10T18:05:14.667Z,24.26
2023-05-10T18:07:43.014Z,24.25
2023-05-10T18:10:13.546Z,24.25
2023-05-10T18:12:44.430Z,24.25
2023-05-10T18:15:14.394Z,24.25
2023-05-10T18:17:44.369Z,24.25
2023-05-10T18:20:15.307Z,24.25
2023-05-10T18:22:48.155Z,24.28
2023-05-10T18:25:20.789Z,24.25
2023-05-10T18:27:54.068Z,24.26
2023-05-10T18:30:23.003Z,24.28
2023-05-10T18:32:55.004Z,24.28
2023-05-10T18:35:25.185Z,24.27
2023-05-10T18:37:56.161Z,24.27
2023-05-10T18:40:28.689Z,24.29
2023-05-10T18:43:01.609Z,24.28
2023-05-10T18:45:31.931Z,24.28
2023-05-10T18:48:06.726Z,24.26
2023-05-10T18:50:39.591Z,24.26
2023-05-10T18:53:12.371Z,24.26
2023-05-10T18:55:46.593Z,24.29
2023-05-10T18:58:16.290Z,24.31
2023-05-10T19:00:48.858Z,24.29
2023-05-10T19:03:19.168Z,24.28
2023-05-10T19:05:53.043Z,24.30
2023-05-10T19:08:20.834Z,24.30
2023-05-10T19:10:55.056Z,24.31
2023-05-10T19:13:27.675Z,24.32
2023-05-10T19:16:13.202Z,24.32
2023-05-10T19:18:47.077Z,24.34
2023-05-10T19:21:17.914Z,24.34
2023-05-10T19:23:49.964Z,24.32
2023-05-10T19:26:24.642Z,24.33
2023-05-10T19:28:58.966Z,24.29
2023-05-10T19:31:31.749Z,24.29
2023-05-10T19:34:01.149Z,24.29
2023-05-10T19:36:32.766Z,24.29
2023-05-10T19:39:00.333Z,24.30
2023-05-10T19:41:33.359Z,24.33
2023-05-10T19:44:04.089Z,24.32
2023-05-10T19:46:39.953Z,24.34
2023-05-10T19:49:10.360Z,24.38
2023-05-10T19:51:44.083Z,24.37
2023-05-10T19:54:11.665Z,24.34
2023-05-10T19:56:47.288Z,24.35
2023-05-10T19:59:17.209Z,24.32
2023-05-10T20:01:50.678Z,24.34
2023-05-10T20:04:19.923Z,24.30
2023-05-10T20:06:49.761Z,24.30
2023-05-10T20:09:20.787Z,24.31
2023-05-10T20:11:53.296Z,24.29
2023-05-10T20:14:23.213Z,24.30
2023-05-10T20:16:50.944Z,24.29
2023-05-10T20:19:18.775Z,24.27
2023-05-10T20:21:48.828Z,24.28
2023-05-10T20:24:21.776Z,24.28
2023-05-10T20:26:51.865Z,24.27
2023-05-10T20:29:31.006Z,24.25
2023-05-10T20:32:03.182Z,24.26
2023-05-10T20:34:31.149Z,24.25
2023-05-10T20:37:00.695Z,24.26
2023-05-10T20:39:31.301Z,24.27
2023-05-10T20:42:01.028Z,24.28
2023-05-10T20:44:34.400Z,24.25
2023-05-10T20:47:10.739Z,24.26
2023-05-10T20:49:43.806Z,24.25
2023-05-10T20:52:14.216Z,24.25
2023-05-10T20:54:43.806Z,24.24
2023-05-10T20:57:14.871Z,24.26
2023-05-10T20:59:44.673Z,24.23
2023-05-10T21:02:15.444Z,24.23
2023-05-10T21:04:48.108Z,24.25
2023-05-10T21:07:20.442Z,24.21
2023-05-10T21:09:53.189Z,24.23
2023-05-10T21:12:23.986Z,24.23
2023-05-10T21:14:53.770Z,24.24
2023-05-10T21:17:29.046Z,24.23
2023-05-10T21:19:57.183Z,24.23
2023-05-10T21:22:29.831Z,24.23
2023-05-10T21:25:00.236Z,24.21
2023-05-10T21:27:33.125Z,24.21
2023-05-10T21:30:03.145Z,24.20
2023-05-10T21:32:35.762Z,24.23
2023-05-10T21:35:06.509Z,24.17
2023-05-10T21:37:41.501Z,24.20
2023-05-10T21:40:14.537Z,24.19
2023-05-10T21:42:46.620Z,24.18
2023-05-10T21:45:17.310Z,24.19
2023-05-10T21:47:50.227Z,24.20
2023-05-10T21:50:22.958Z,24.22
2023-05-10T21:52:54.395Z,24.19
2023-05-10T21:55:23.294Z,24.24
2023-05-10T21:57:51.216Z,24.17
2023-05-10T22:00:21.562Z,24.20
2023-05-10T22:02:54.374Z,24.20
2023-05-10T22:05:24.023Z,24.18
2023-05-10T22:07:57.435Z,24.18
2023-05-10T22:10:29.915Z,24.16
2023-05-10T22:13:03.078Z,24.14
2023-05-10T22:15:36.157Z,24.17
2023-05-10T22:18:06.726Z,24.16
2023-05-10T22:20:35.092Z,24.15
2023-05-10T22:23:07.550Z,24.15
2023-05-10T22:25:35.287Z,24.11
2023-05-10T22:28:05.521Z,24.11
2023-05-10T22:30:37.647Z,24.09
2023-05-10T22:33:10.253Z,24.09
2023-05-10T22:35:39.968Z,24.11
2023-05-10T22:38:09.555Z,24.12
2023-05-10T22:40:39.628Z,24.16
2023-05-10T22:43:09.454Z,24.17
2023-05-10T22:45:39.506Z,24.16
2023-05-10T22:48:09.365Z,24.15
2023-05-10T22:50:41.251Z,24.12
2023-05-10T22:53:14.071Z,24.11
2023-05-10T22:55:41.639Z,24.09
2023-05-10T22:58:11.431Z,24.11
2023-05-10T23:00:38.846Z,24.09
2023-05-10T23:03:16.344Z,24.10
2023-05-10T23:05:48.314Z,24.11
2023-05-10T23:08:18.026Z,24.10
2023-05-10T23:10:50.554Z,24.06
2023-05-10T23:13:21.907Z,24.06
2023-05-10T23:15:52.059Z,24.08
2023-05-10T23:18:24.858Z,24.09
2023-05-10T23:20:55.051Z,24.11
2023-05-10T23:23:27.528Z,24.10
2023-05-10T23:26:02.190Z,24.07
2023-05-10T23:28:34.862Z,24.08
2023-05-10T23:31:07.667Z,24.09
2023-05-10T23:33:40.986Z,24.08
2023-05-10T23:36:11.300Z,24.09
2023-05-10T23:38:46.282Z,24.08
2023-05-10T23:41:16.735Z,24.08
2023-05-10T23:43:46.553Z,24.06
2023-05-10T23:46:16.896Z,24.06
2023-05-10T23:48:46.761Z,24.03
2023-05-10T23:51:16.674Z,24.03
2023-05-10T23:53:46.620Z,24.05
2023-05-10T23:56:16.665Z,24.03
2023-05-10T23:58:46.470Z,24.04
